Main page
METAR-TAF:

METAR-TAF

Airports :

Walnut Ridge Regional Airport

Walnut Ridge, Arkansas, United States

latitude: 36-08N, longitude: 090-55W, elevation: 272 ft

Current weather observation

The report was made 19 minutes ago, at 11:04 UTC
Wind 5 mph from the Northeast
Temperature 68°F
Humidity 100%
Pressure 29.88 in. Hg
Visibility: 3 miles
Broken clouds at a height of 10000 ft
mist

METAR: KARG 231104Z AUTO 05004KT 3SM BR BKN100 20/20 A2988 RMK AO2 PNO $

Time: 06:23 (11:23 UTC)


TAF: missing

Weather observations and forecasts of more than 4000 airports (METAR and TAF reports).

The available stations are represented by yellow and red dots on the map.

Hover mouse over dot to see the name of the station.

Then click to see weather observations and forecasts.

To change the map : click on the green buttons with a black cross to zoom in, on the green button with a dash to zoom out, or on the green arrows for adjacent maps.


METAR-TAF: